Terminal Aerodrome Forecast
Issued by NWS Sterling, VA

Current Version | Previous Version | Graphics & Text | Print | Product List | Glossary On
Versions: 1 2 3 4 5 6 7 8 9 10 11 12 13 14 15 16 17 18 19
000
FTUS41 KLWX 251120
TAFMRB
TAF
KMRB 251120Z 2512/2612 28005KT P6SM FEW070 SCT250
     FM251400 29009KT P6SM FEW060 SCT250
     FM251600 29011G22KT P6SM FEW070 SCT250
     FM260200 28007KT P6SM FEW080 FEW250
     FM260700 VRB03KT P6SM FEW090 FEW250=

USA.gov is the U.S. government's official web portal to all federal, state and local government web resources and services.